sensor_id;sensor_type;location;lat;lon;timestamp;P1;durP1;ratioP1;P2;durP2;ratioP2
11044;SDS011;9786;42.714;23.272;2024-03-17T00:00:32;23.20;;;19.17;;
11044;SDS011;9786;42.714;23.272;2024-03-17T00:02:59;25.90;;;20.33;;
11044;SDS011;9786;42.714;23.272;2024-03-17T00:05:27;24.33;;;20.37;;
11044;SDS011;9786;42.714;23.272;2024-03-17T00:07:55;26.90;;;20.23;;
11044;SDS011;9786;42.714;23.272;2024-03-17T00:10:24;25.80;;;20.67;;
11044;SDS011;9786;42.714;23.272;2024-03-17T00:12:51;20.57;;;18.23;;
11044;SDS011;9786;42.714;23.272;2024-03-17T00:15:19;23.30;;;19.90;;
11044;SDS011;9786;42.714;23.272;2024-03-17T00:17:48;23.90;;;20.13;;
11044;SDS011;9786;42.714;23.272;2024-03-17T00:20:16;23.73;;;20.27;;
11044;SDS011;9786;42.714;23.272;2024-03-17T00:22:46;27.87;;;19.97;;
11044;SDS011;9786;42.714;23.272;2024-03-17T00:25:15;22.57;;;19.60;;
11044;SDS011;9786;42.714;23.272;2024-03-17T00:27:44;22.93;;;20.03;;
11044;SDS011;9786;42.714;23.272;2024-03-17T00:30:14;23.73;;;20.07;;
11044;SDS011;9786;42.714;23.272;2024-03-17T00:32:42;26.33;;;21.07;;
11044;SDS011;9786;42.714;23.272;2024-03-17T00:35:12;24.70;;;20.17;;
11044;SDS011;9786;42.714;23.272;2024-03-17T00:37:43;22.50;;;19.73;;
11044;SDS011;9786;42.714;23.272;2024-03-17T00:40:12;23.37;;;19.70;;
11044;SDS011;9786;42.714;23.272;2024-03-17T00:42:40;24.93;;;20.90;;
11044;SDS011;9786;42.714;23.272;2024-03-17T00:45:08;26.33;;;19.73;;
11044;SDS011;9786;42.714;23.272;2024-03-17T00:47:36;22.30;;;19.03;;
11044;SDS011;9786;42.714;23.272;2024-03-17T00:50:05;25.60;;;20.87;;
11044;SDS011;9786;42.714;23.272;2024-03-17T00:52:36;23.03;;;19.57;;
11044;SDS011;9786;42.714;23.272;2024-03-17T00:55:04;27.80;;;20.27;;
11044;SDS011;9786;42.714;23.272;2024-03-17T00:57:33;24.13;;;19.57;;
11044;SDS011;9786;42.714;23.272;2024-03-17T01:00:00;25.60;;;20.50;;
11044;SDS011;9786;42.714;23.272;2024-03-17T01:02:29;23.87;;;19.87;;
11044;SDS011;9786;42.714;23.272;2024-03-17T01:04:56;23.90;;;20.60;;
11044;SDS011;9786;42.714;23.272;2024-03-17T01:07:24;20.43;;;17.27;;
11044;SDS011;9786;42.714;23.272;2024-03-17T01:09:53;22.10;;;19.57;;
11044;SDS011;9786;42.714;23.272;2024-03-17T01:12:22;23.03;;;19.33;;
11044;SDS011;9786;42.714;23.272;2024-03-17T01:14:49;22.23;;;18.13;;
11044;SDS011;9786;42.714;23.272;2024-03-17T01:17:17;22.97;;;19.27;;
11044;SDS011;9786;42.714;23.272;2024-03-17T01:19:45;23.40;;;19.93;;
11044;SDS011;9786;42.714;23.272;2024-03-17T01:22:13;23.37;;;19.20;;
11044;SDS011;9786;42.714;23.272;2024-03-17T01:24:40;25.77;;;20.47;;
11044;SDS011;9786;42.714;23.272;2024-03-17T01:27:13;22.97;;;19.97;;
11044;SDS011;9786;42.714;23.272;2024-03-17T01:29:42;23.97;;;19.50;;
11044;SDS011;9786;42.714;23.272;2024-03-17T01:32:11;22.57;;;19.47;;
11044;SDS011;9786;42.714;23.272;2024-03-17T01:34:38;23.30;;;19.93;;
11044;SDS011;9786;42.714;23.272;2024-03-17T01:37:06;22.90;;;19.90;;
11044;SDS011;9786;42.714;23.272;2024-03-17T01:39:34;23.40;;;20.53;;
11044;SDS011;9786;42.714;23.272;2024-03-17T01:42:03;25.33;;;20.87;;
11044;SDS011;9786;42.714;23.272;2024-03-17T01:44:31;26.73;;;20.57;;
11044;SDS011;9786;42.714;23.272;2024-03-17T01:46:59;24.47;;;21.00;;
11044;SDS011;9786;42.714;23.272;2024-03-17T01:49:27;25.27;;;21.93;;
11044;SDS011;9786;42.714;23.272;2024-03-17T01:51:55;25.70;;;21.37;;
11044;SDS011;9786;42.714;23.272;2024-03-17T01:54:23;23.73;;;18.87;;
11044;SDS011;9786;42.714;23.272;2024-03-17T01:56:55;23.93;;;20.37;;
11044;SDS011;9786;42.714;23.272;2024-03-17T01:59:22;26.97;;;22.07;;
11044;SDS011;9786;42.714;23.272;2024-03-17T02:01:52;28.07;;;21.57;;
11044;SDS011;9786;42.714;23.272;2024-03-17T02:04:19;24.83;;;20.80;;
11044;SDS011;9786;42.714;23.272;2024-03-17T02:06:48;23.87;;;21.17;;
11044;SDS011;9786;42.714;23.272;2024-03-17T02:09:15;24.33;;;20.37;;
11044;SDS011;9786;42.714;23.272;2024-03-17T02:11:45;24.53;;;19.07;;
11044;SDS011;9786;42.714;23.272;2024-03-17T02:14:12;26.90;;;20.97;;
11044;SDS011;9786;42.714;23.272;2024-03-17T02:16:43;25.73;;;22.00;;
11044;SDS011;9786;42.714;23.272;2024-03-17T02:19:14;23.23;;;19.70;;
11044;SDS011;9786;42.714;23.272;2024-03-17T02:21:45;24.57;;;21.03;;
11044;SDS011;9786;42.714;23.272;2024-03-17T02:24:13;26.90;;;21.00;;
11044;SDS011;9786;42.714;23.272;2024-03-17T02:26:41;25.60;;;21.27;;
11044;SDS011;9786;42.714;23.272;2024-03-17T02:29:09;24.47;;;20.27;;
11044;SDS011;9786;42.714;23.272;2024-03-17T02:31:38;26.50;;;21.37;;
11044;SDS011;9786;42.714;23.272;2024-03-17T02:34:07;27.43;;;22.10;;
11044;SDS011;9786;42.714;23.272;2024-03-17T02:36:36;25.60;;;20.97;;
11044;SDS011;9786;42.714;23.272;2024-03-17T02:39:03;26.03;;;21.20;;
11044;SDS011;9786;42.714;23.272;2024-03-17T02:41:53;24.50;;;20.70;;
11044;SDS011;9786;42.714;23.272;2024-03-17T02:44:21;26.73;;;21.27;;
11044;SDS011;9786;42.714;23.272;2024-03-17T02:46:50;24.90;;;21.87;;
11044;SDS011;9786;42.714;23.272;2024-03-17T02:49:19;26.53;;;20.23;;
11044;SDS011;9786;42.714;23.272;2024-03-17T02:51:49;23.57;;;20.07;;
11044;SDS011;9786;42.714;23.272;2024-03-17T02:54:17;25.07;;;20.37;;
11044;SDS011;9786;42.714;23.272;2024-03-17T02:56:45;25.53;;;21.43;;
11044;SDS011;9786;42.714;23.272;2024-03-17T02:59:15;25.73;;;22.07;;
11044;SDS011;9786;42.714;23.272;2024-03-17T03:01:43;27.37;;;21.63;;
11044;SDS011;9786;42.714;23.272;2024-03-17T03:04:12;24.20;;;20.73;;
11044;SDS011;9786;42.714;23.272;2024-03-17T03:06:41;25.37;;;21.13;;
11044;SDS011;9786;42.714;23.272;2024-03-17T03:09:09;24.37;;;21.40;;
11044;SDS011;9786;42.714;23.272;2024-03-17T03:11:40;25.37;;;19.87;;
11044;SDS011;9786;42.714;23.272;2024-03-17T03:14:08;27.30;;;21.90;;
11044;SDS011;9786;42.714;23.272;2024-03-17T03:16:38;26.40;;;20.90;;
11044;SDS011;9786;42.714;23.272;2024-03-17T03:19:08;27.30;;;22.07;;
11044;SDS011;9786;42.714;23.272;2024-03-17T03:21:36;24.53;;;21.07;;
11044;SDS011;9786;42.714;23.272;2024-03-17T03:24:04;24.90;;;21.43;;
11044;SDS011;9786;42.714;23.272;2024-03-17T03:26:33;21.97;;;18.37;;
11044;SDS011;9786;42.714;23.272;2024-03-17T03:29:01;24.07;;;19.13;;
11044;SDS011;9786;42.714;23.272;2024-03-17T03:31:30;24.77;;;21.00;;
11044;SDS011;9786;42.714;23.272;2024-03-17T03:34:00;28.70;;;22.13;;
11044;SDS011;9786;42.714;23.272;2024-03-17T03:36:29;21.23;;;18.77;;
11044;SDS011;9786;42.714;23.272;2024-03-17T03:38:57;26.20;;;21.87;;
11044;SDS011;9786;42.714;23.272;2024-03-17T03:41:26;26.13;;;21.33;;
11044;SDS011;9786;42.714;23.272;2024-03-17T03:43:54;23.33;;;19.60;;
11044;SDS011;9786;42.714;23.272;2024-03-17T03:46:23;27.83;;;23.10;;
11044;SDS011;9786;42.714;23.272;2024-03-17T03:48:52;27.83;;;21.43;;
11044;SDS011;9786;42.714;23.272;2024-03-17T03:51:22;28.83;;;23.57;;
11044;SDS011;9786;42.714;23.272;2024-03-17T03:53:51;28.07;;;21.93;;
11044;SDS011;9786;42.714;23.272;2024-03-17T03:56:19;29.60;;;24.37;;
11044;SDS011;9786;42.714;23.272;2024-03-17T03:58:48;28.17;;;22.97;;
11044;SDS011;9786;42.714;23.272;2024-03-17T04:01:17;30.73;;;23.50;;
11044;SDS011;9786;42.714;23.272;2024-03-17T04:03:48;29.33;;;23.97;;
11044;SDS011;9786;42.714;23.272;2024-03-17T04:06:17;33.07;;;23.20;;
11044;SDS011;9786;42.714;23.272;2024-03-17T04:08:46;26.80;;;23.43;;
11044;SDS011;9786;42.714;23.272;2024-03-17T04:11:15;28.23;;;22.80;;
11044;SDS011;9786;42.714;23.272;2024-03-17T04:13:43;28.73;;;23.50;;
11044;SDS011;9786;42.714;23.272;2024-03-17T04:16:11;30.77;;;23.50;;
11044;SDS011;9786;42.714;23.272;2024-03-17T04:18:40;46.83;;;33.83;;
11044;SDS011;9786;42.714;23.272;2024-03-17T04:21:08;28.07;;;23.10;;
11044;SDS011;9786;42.714;23.272;2024-03-17T04:23:37;36.57;;;27.80;;
11044;SDS011;9786;42.714;23.272;2024-03-17T04:26:07;27.40;;;23.43;;
11044;SDS011;9786;42.714;23.272;2024-03-17T04:28:36;32.67;;;25.10;;
11044;SDS011;9786;42.714;23.272;2024-03-17T04:31:05;29.43;;;22.83;;
11044;SDS011;9786;42.714;23.272;2024-03-17T04:33:34;26.30;;;22.93;;
11044;SDS011;9786;42.714;23.272;2024-03-17T04:36:05;29.93;;;23.30;;
11044;SDS011;9786;42.714;23.272;2024-03-17T04:38:34;29.57;;;23.47;;
11044;SDS011;9786;42.714;23.272;2024-03-17T04:41:08;27.73;;;22.30;;
11044;SDS011;9786;42.714;23.272;2024-03-17T04:43:36;29.03;;;23.37;;
11044;SDS011;9786;42.714;23.272;2024-03-17T04:46:04;29.17;;;23.60;;
11044;SDS011;9786;42.714;23.272;2024-03-17T04:48:33;29.63;;;23.87;;
11044;SDS011;9786;42.714;23.272;2024-03-17T04:51:01;26.03;;;22.37;;
11044;SDS011;9786;42.714;23.272;2024-03-17T04:53:30;27.70;;;22.63;;
11044;SDS011;9786;42.714;23.272;2024-03-17T04:56:02;29.03;;;21.87;;
11044;SDS011;9786;42.714;23.272;2024-03-17T04:58:32;29.70;;;24.10;;
11044;SDS011;9786;42.714;23.272;2024-03-17T05:01:05;26.57;;;22.20;;
11044;SDS011;9786;42.714;23.272;2024-03-17T05:03:33;29.90;;;21.67;;
11044;SDS011;9786;42.714;23.272;2024-03-17T05:06:02;28.30;;;21.33;;
11044;SDS011;9786;42.714;23.272;2024-03-17T05:08:34;29.73;;;21.70;;
11044;SDS011;9786;42.714;23.272;2024-03-17T05:11:03;26.73;;;21.30;;
11044;SDS011;9786;42.714;23.272;2024-03-17T05:13:34;39.97;;;27.90;;
11044;SDS011;9786;42.714;23.272;2024-03-17T05:16:06;34.30;;;26.77;;
11044;SDS011;9786;42.714;23.272;2024-03-17T05:18:34;46.90;;;33.30;;
11044;SDS011;9786;42.714;23.272;2024-03-17T05:21:05;29.93;;;26.20;;
11044;SDS011;9786;42.714;23.272;2024-03-17T05:23:35;32.63;;;24.17;;
11044;SDS011;9786;42.714;23.272;2024-03-17T05:26:05;37.87;;;22.50;;
11044;SDS011;9786;42.714;23.272;2024-03-17T05:28:35;26.00;;;21.57;;
11044;SDS011;9786;42.714;23.272;2024-03-17T05:31:06;29.07;;;22.27;;
11044;SDS011;9786;42.714;23.272;2024-03-17T05:33:35;28.73;;;22.23;;
11044;SDS011;9786;42.714;23.272;2024-03-17T05:36:05;29.17;;;22.83;;
11044;SDS011;9786;42.714;23.272;2024-03-17T05:38:33;29.50;;;23.63;;
11044;SDS011;9786;42.714;23.272;2024-03-17T05:41:01;26.87;;;21.47;;
11044;SDS011;9786;42.714;23.272;2024-03-17T05:43:35;36.40;;;25.30;;
11044;SDS011;9786;42.714;23.272;2024-03-17T05:46:08;28.63;;;22.63;;
11044;SDS011;9786;42.714;23.272;2024-03-17T05:48:39;64.33;;;48.93;;
11044;SDS011;9786;42.714;23.272;2024-03-17T05:51:08;33.07;;;27.47;;
11044;SDS011;9786;42.714;23.272;2024-03-17T05:53:38;64.53;;;50.27;;
11044;SDS011;9786;42.714;23.272;2024-03-17T05:56:10;32.93;;;27.93;;
11044;SDS011;9786;42.714;23.272;2024-03-17T05:58:40;33.70;;;27.90;;
11044;SDS011;9786;42.714;23.272;2024-03-17T06:01:08;33.97;;;26.70;;
11044;SDS011;9786;42.714;23.272;2024-03-17T06:03:38;32.77;;;28.00;;
11044;SDS011;9786;42.714;23.272;2024-03-17T06:06:08;29.97;;;24.53;;
11044;SDS011;9786;42.714;23.272;2024-03-17T06:08:36;30.43;;;25.23;;
11044;SDS011;9786;42.714;23.272;2024-03-17T06:11:05;29.03;;;23.53;;
11044;SDS011;9786;42.714;23.272;2024-03-17T06:13:34;31.20;;;25.00;;
11044;SDS011;9786;42.714;23.272;2024-03-17T06:16:05;38.57;;;29.90;;
11044;SDS011;9786;42.714;23.272;2024-03-17T06:18:33;34.23;;;29.07;;
11044;SDS011;9786;42.714;23.272;2024-03-17T06:21:04;38.03;;;28.20;;
11044;SDS011;9786;42.714;23.272;2024-03-17T06:23:34;35.40;;;31.27;;
11044;SDS011;9786;42.714;23.272;2024-03-17T06:26:04;37.40;;;32.70;;
11044;SDS011;9786;42.714;23.272;2024-03-17T06:28:33;40.83;;;33.57;;
11044;SDS011;9786;42.714;23.272;2024-03-17T06:31:01;37.10;;;30.20;;
11044;SDS011;9786;42.714;23.272;2024-03-17T06:33:36;32.20;;;27.43;;
11044;SDS011;9786;42.714;23.272;2024-03-17T06:36:07;33.03;;;26.83;;
11044;SDS011;9786;42.714;23.272;2024-03-17T06:38:36;28.47;;;25.00;;
11044;SDS011;9786;42.714;23.272;2024-03-17T06:41:05;29.83;;;24.53;;
11044;SDS011;9786;42.714;23.272;2024-03-17T06:43:34;26.10;;;23.23;;
11044;SDS011;9786;42.714;23.272;2024-03-17T06:46:02;25.93;;;23.17;;
11044;SDS011;9786;42.714;23.272;2024-03-17T06:48:31;26.77;;;23.83;;
11044;SDS011;9786;42.714;23.272;2024-03-17T06:51:01;27.27;;;23.90;;
11044;SDS011;9786;42.714;23.272;2024-03-17T06:53:30;27.37;;;22.97;;
11044;SDS011;9786;42.714;23.272;2024-03-17T06:55:59;25.87;;;21.30;;
11044;SDS011;9786;42.714;23.272;2024-03-17T06:58:28;25.07;;;21.43;;
11044;SDS011;9786;42.714;23.272;2024-03-17T07:00:58;23.47;;;19.70;;
11044;SDS011;9786;42.714;23.272;2024-03-17T07:03:29;25.67;;;18.87;;
11044;SDS011;9786;42.714;23.272;2024-03-17T07:06:02;21.97;;;19.43;;
11044;SDS011;9786;42.714;23.272;2024-03-17T07:08:33;21.70;;;19.17;;
11044;SDS011;9786;42.714;23.272;2024-03-17T07:11:04;24.73;;;20.40;;
11044;SDS011;9786;42.714;23.272;2024-03-17T07:13:35;20.93;;;18.83;;
11044;SDS011;9786;42.714;23.272;2024-03-17T07:16:04;24.00;;;20.03;;
11044;SDS011;9786;42.714;23.272;2024-03-17T07:18:33;19.93;;;17.57;;
11044;SDS011;9786;42.714;23.272;2024-03-17T07:21:04;19.00;;;16.97;;
11044;SDS011;9786;42.714;23.272;2024-03-17T07:23:36;19.33;;;17.23;;
11044;SDS011;9786;42.714;23.272;2024-03-17T07:26:05;22.43;;;18.27;;
11044;SDS011;9786;42.714;23.272;2024-03-17T07:28:35;19.73;;;17.73;;
11044;SDS011;9786;42.714;23.272;2024-03-17T07:31:06;24.37;;;19.03;;
11044;SDS011;9786;42.714;23.272;2024-03-17T07:33:37;25.53;;;18.27;;
11044;SDS011;9786;42.714;23.272;2024-03-17T07:36:07;19.43;;;17.43;;
11044;SDS011;9786;42.714;23.272;2024-03-17T07:38:37;17.90;;;15.67;;
11044;SDS011;9786;42.714;23.272;2024-03-17T07:41:08;18.03;;;16.13;;
11044;SDS011;9786;42.714;23.272;2024-03-17T07:43:37;20.07;;;17.87;;
11044;SDS011;9786;42.714;23.272;2024-03-17T07:46:07;17.73;;;15.93;;
11044;SDS011;9786;42.714;23.272;2024-03-17T07:48:39;18.20;;;15.83;;
11044;SDS011;9786;42.714;23.272;2024-03-17T07:51:10;19.70;;;16.60;;
11044;SDS011;9786;42.714;23.272;2024-03-17T07:53:40;17.37;;;15.23;;
11044;SDS011;9786;42.714;23.272;2024-03-17T07:56:11;17.67;;;15.67;;
11044;SDS011;9786;42.714;23.272;2024-03-17T07:58:44;18.90;;;15.00;;
11044;SDS011;9786;42.714;23.272;2024-03-17T08:01:18;14.57;;;13.00;;
11044;SDS011;9786;42.714;23.272;2024-03-17T08:03:48;15.97;;;13.30;;
11044;SDS011;9786;42.714;23.272;2024-03-17T08:06:22;16.70;;;12.97;;
11044;SDS011;9786;42.714;23.272;2024-03-17T08:08:51;17.37;;;14.13;;
11044;SDS011;9786;42.714;23.272;2024-03-17T08:11:20;15.97;;;14.33;;
11044;SDS011;9786;42.714;23.272;2024-03-17T08:13:48;16.73;;;13.37;;
11044;SDS011;9786;42.714;23.272;2024-03-17T08:16:16;14.77;;;12.53;;
11044;SDS011;9786;42.714;23.272;2024-03-17T08:18:44;16.23;;;13.70;;
11044;SDS011;9786;42.714;23.272;2024-03-17T08:21:12;15.07;;;12.30;;
11044;SDS011;9786;42.714;23.272;2024-03-17T08:23:44;15.30;;;13.37;;
11044;SDS011;9786;42.714;23.272;2024-03-17T08:26:13;16.97;;;12.97;;
11044;SDS011;9786;42.714;23.272;2024-03-17T08:28:41;15.07;;;13.57;;
11044;SDS011;9786;42.714;23.272;2024-03-17T08:31:10;16.10;;;13.70;;
11044;SDS011;9786;42.714;23.272;2024-03-17T08:33:39;14.13;;;12.67;;
11044;SDS011;9786;42.714;23.272;2024-03-17T08:36:07;15.53;;;13.23;;
11044;SDS011;9786;42.714;23.272;2024-03-17T08:38:38;16.37;;;13.47;;
11044;SDS011;9786;42.714;23.272;2024-03-17T08:41:08;15.23;;;12.97;;
11044;SDS011;9786;42.714;23.272;2024-03-17T08:43:42;17.43;;;15.60;;
11044;SDS011;9786;42.714;23.272;2024-03-17T08:46:11;13.37;;;12.00;;
11044;SDS011;9786;42.714;23.272;2024-03-17T08:48:40;15.13;;;13.63;;
11044;SDS011;9786;42.714;23.272;2024-03-17T08:51:09;19.27;;;14.77;;
11044;SDS011;9786;42.714;23.272;2024-03-17T08:53:39;15.00;;;13.57;;
11044;SDS011;9786;42.714;23.272;2024-03-17T08:56:09;12.63;;;11.43;;
11044;SDS011;9786;42.714;23.272;2024-03-17T08:58:38;13.27;;;11.97;;
11044;SDS011;9786;42.714;23.272;2024-03-17T09:01:06;14.03;;;11.93;;
11044;SDS011;9786;42.714;23.272;2024-03-17T09:03:36;15.47;;;11.90;;
11044;SDS011;9786;42.714;23.272;2024-03-17T09:06:11;13.60;;;11.77;;
11044;SDS011;9786;42.714;23.272;2024-03-17T09:08:43;16.93;;;12.63;;
11044;SDS011;9786;42.714;23.272;2024-03-17T09:11:12;14.07;;;12.57;;
11044;SDS011;9786;42.714;23.272;2024-03-17T09:13:41;13.93;;;12.53;;
11044;SDS011;9786;42.714;23.272;2024-03-17T09:16:10;13.70;;;11.60;;
11044;SDS011;9786;42.714;23.272;2024-03-17T09:18:39;12.47;;;10.60;;
11044;SDS011;9786;42.714;23.272;2024-03-17T09:21:07;10.57;;;9.43;;
11044;SDS011;9786;42.714;23.272;2024-03-17T09:23:36;10.60;;;9.57;;
11044;SDS011;9786;42.714;23.272;2024-03-17T09:26:06;13.17;;;11.87;;
11044;SDS011;9786;42.714;23.272;2024-03-17T09:28:37;12.63;;;11.33;;
11044;SDS011;9786;42.714;23.272;2024-03-17T09:31:05;13.37;;;10.73;;
11044;SDS011;9786;42.714;23.272;2024-03-17T09:33:34;11.47;;;10.37;;
11044;SDS011;9786;42.714;23.272;2024-03-17T09:36:03;11.10;;;10.00;;
11044;SDS011;9786;42.714;23.272;2024-03-17T09:38:34;10.60;;;9.60;;
11044;SDS011;9786;42.714;23.272;2024-03-17T09:41:03;10.47;;;9.43;;
11044;SDS011;9786;42.714;23.272;2024-03-17T09:43:34;11.40;;;9.67;;
11044;SDS011;9786;42.714;23.272;2024-03-17T09:46:04;10.20;;;9.17;;
11044;SDS011;9786;42.714;23.272;2024-03-17T09:48:34;17.03;;;15.23;;
11044;SDS011;9786;42.714;23.272;2024-03-17T09:51:03;12.33;;;10.20;;
11044;SDS011;9786;42.714;23.272;2024-03-17T09:53:32;8.27;;;7.57;;
11044;SDS011;9786;42.714;23.272;2024-03-17T09:56:03;10.80;;;8.27;;
11044;SDS011;9786;42.714;23.272;2024-03-17T09:58:35;10.33;;;9.33;;
11044;SDS011;9786;42.714;23.272;2024-03-17T10:01:06;10.70;;;9.70;;
11044;SDS011;9786;42.714;23.272;2024-03-17T10:03:39;9.30;;;8.40;;
11044;SDS011;9786;42.714;23.272;2024-03-17T10:06:09;8.40;;;7.53;;
11044;SDS011;9786;42.714;23.272;2024-03-17T10:08:42;9.67;;;8.77;;
11044;SDS011;9786;42.714;23.272;2024-03-17T10:11:11;7.73;;;7.07;;
11044;SDS011;9786;42.714;23.272;2024-03-17T10:13:42;8.63;;;7.83;;
11044;SDS011;9786;42.714;23.272;2024-03-17T10:16:31;9.63;;;8.67;;
11044;SDS011;9786;42.714;23.272;2024-03-17T10:19:07;9.40;;;8.40;;
11044;SDS011;9786;42.714;23.272;2024-03-17T10:21:39;9.73;;;8.80;;
11044;SDS011;9786;42.714;23.272;2024-03-17T10:24:09;11.97;;;9.73;;
11044;SDS011;9786;42.714;23.272;2024-03-17T10:26:42;8.67;;;7.80;;
11044;SDS011;9786;42.714;23.272;2024-03-17T10:32:04;9.13;;;8.23;;
11044;SDS011;9786;42.714;23.272;2024-03-17T10:34:42;8.13;;;7.33;;
11044;SDS011;9786;42.714;23.272;2024-03-17T10:37:16;14.87;;;13.20;;
11044;SDS011;9786;42.714;23.272;2024-03-17T10:39:50;9.20;;;8.23;;
11044;SDS011;9786;42.714;23.272;2024-03-17T10:42:23;8.47;;;7.10;;
11044;SDS011;9786;42.714;23.272;2024-03-17T10:44:54;8.10;;;7.13;;
11044;SDS011;9786;42.714;23.272;2024-03-17T10:47:24;8.47;;;7.57;;
11044;SDS011;9786;42.714;23.272;2024-03-17T10:49:54;7.07;;;6.37;;
11044;SDS011;9786;42.714;23.272;2024-03-17T10:52:23;10.33;;;8.90;;
11044;SDS011;9786;42.714;23.272;2024-03-17T10:54:52;7.10;;;6.47;;
11044;SDS011;9786;42.714;23.272;2024-03-17T10:57:24;7.03;;;6.33;;
11044;SDS011;9786;42.714;23.272;2024-03-17T11:00:03;8.27;;;7.03;;
11044;SDS011;9786;42.714;23.272;2024-03-17T11:02:36;10.67;;;9.67;;
11044;SDS011;9786;42.714;23.272;2024-03-17T11:05:07;7.33;;;6.63;;
11044;SDS011;9786;42.714;23.272;2024-03-17T11:07:41;6.80;;;6.10;;
11044;SDS011;9786;42.714;23.272;2024-03-17T11:10:14;6.73;;;6.13;;
11044;SDS011;9786;42.714;23.272;2024-03-17T11:12:46;5.80;;;5.30;;
11044;SDS011;9786;42.714;23.272;2024-03-17T11:15:35;6.20;;;5.60;;
11044;SDS011;9786;42.714;23.272;2024-03-17T11:21:02;5.43;;;4.70;;
11044;SDS011;9786;42.714;23.272;2024-03-17T11:23:37;4.60;;;4.20;;
11044;SDS011;9786;42.714;23.272;2024-03-17T11:26:06;4.93;;;4.53;;
11044;SDS011;9786;42.714;23.272;2024-03-17T11:28:47;4.77;;;4.37;;
11044;SDS011;9786;42.714;23.272;2024-03-17T11:31:37;4.70;;;4.27;;
11044;SDS011;9786;42.714;23.272;2024-03-17T11:37:02;5.60;;;4.80;;
11044;SDS011;9786;42.714;23.272;2024-03-17T11:39:47;5.47;;;4.97;;
11044;SDS011;9786;42.714;23.272;2024-03-17T11:42:17;4.93;;;4.47;;
11044;SDS011;9786;42.714;23.272;2024-03-17T11:44:54;5.97;;;5.20;;
11044;SDS011;9786;42.714;23.272;2024-03-17T11:47:32;6.80;;;6.07;;
11044;SDS011;9786;42.714;23.272;2024-03-17T11:50:07;5.93;;;5.43;;
11044;SDS011;9786;42.714;23.272;2024-03-17T11:52:37;6.30;;;5.70;;
11044;SDS011;9786;42.714;23.272;2024-03-17T11:55:16;6.03;;;5.50;;
11044;SDS011;9786;42.714;23.272;2024-03-17T11:57:44;5.60;;;4.80;;
11044;SDS011;9786;42.714;23.272;2024-03-17T12:00:18;5.50;;;5.00;;
11044;SDS011;9786;42.714;23.272;2024-03-17T12:02:48;6.90;;;5.33;;
11044;SDS011;9786;42.714;23.272;2024-03-17T12:05:18;6.20;;;5.17;;
11044;SDS011;9786;42.714;23.272;2024-03-17T12:07:47;6.33;;;4.97;;
11044;SDS011;9786;42.714;23.272;2024-03-17T12:10:17;6.63;;;5.70;;
11044;SDS011;9786;42.714;23.272;2024-03-17T12:12:46;6.73;;;6.07;;
11044;SDS011;9786;42.714;23.272;2024-03-17T12:15:18;7.47;;;6.23;;
11044;SDS011;9786;42.714;23.272;2024-03-17T12:17:53;6.93;;;5.80;;
11044;SDS011;9786;42.714;23.272;2024-03-17T12:20:50;6.43;;;5.77;;
11044;SDS011;9786;42.714;23.272;2024-03-17T12:23:17;6.57;;;5.87;;
11044;SDS011;9786;42.714;23.272;2024-03-17T12:25:46;6.50;;;5.90;;
11044;SDS011;9786;42.714;23.272;2024-03-17T12:28:14;7.00;;;6.30;;
11044;SDS011;9786;42.714;23.272;2024-03-17T12:30:44;6.30;;;5.70;;
11044;SDS011;9786;42.714;23.272;2024-03-17T12:33:12;6.63;;;6.03;;
11044;SDS011;9786;42.714;23.272;2024-03-17T12:35:44;7.87;;;6.43;;
11044;SDS011;9786;42.714;23.272;2024-03-17T12:38:23;8.90;;;7.97;;
11044;SDS011;9786;42.714;23.272;2024-03-17T12:40:53;8.20;;;7.20;;
11044;SDS011;9786;42.714;23.272;2024-03-17T12:43:20;7.37;;;6.67;;
11044;SDS011;9786;42.714;23.272;2024-03-17T12:46:00;8.27;;;7.30;;
11044;SDS011;9786;42.714;23.272;2024-03-17T12:48:27;7.50;;;6.77;;
11044;SDS011;9786;42.714;23.272;2024-03-17T12:50:55;7.63;;;6.63;;
11044;SDS011;9786;42.714;23.272;2024-03-17T12:53:25;7.10;;;6.40;;
11044;SDS011;9786;42.714;23.272;2024-03-17T12:55:54;6.57;;;6.07;;
11044;SDS011;9786;42.714;23.272;2024-03-17T12:58:36;8.23;;;7.40;;
11044;SDS011;9786;42.714;23.272;2024-03-17T13:01:18;8.23;;;7.53;;
11044;SDS011;9786;42.714;23.272;2024-03-17T13:03:47;7.97;;;7.27;;
11044;SDS011;9786;42.714;23.272;2024-03-17T13:06:21;9.10;;;6.50;;
11044;SDS011;9786;42.714;23.272;2024-03-17T13:08:52;8.10;;;7.33;;
11044;SDS011;9786;42.714;23.272;2024-03-17T13:11:21;7.67;;;7.03;;
11044;SDS011;9786;42.714;23.272;2024-03-17T13:13:50;8.37;;;7.57;;
11044;SDS011;9786;42.714;23.272;2024-03-17T13:16:20;8.43;;;7.63;;
11044;SDS011;9786;42.714;23.272;2024-03-17T13:18:48;8.80;;;8.00;;
11044;SDS011;9786;42.714;23.272;2024-03-17T13:21:17;9.70;;;8.27;;
11044;SDS011;9786;42.714;23.272;2024-03-17T13:23:46;8.47;;;7.67;;
11044;SDS011;9786;42.714;23.272;2024-03-17T13:26:15;9.73;;;8.27;;
11044;SDS011;9786;42.714;23.272;2024-03-17T13:28:43;8.93;;;7.80;;
11044;SDS011;9786;42.714;23.272;2024-03-17T13:31:12;8.70;;;7.90;;
11044;SDS011;9786;42.714;23.272;2024-03-17T13:33:43;10.27;;;9.27;;
11044;SDS011;9786;42.714;23.272;2024-03-17T13:36:16;11.10;;;9.93;;
11044;SDS011;9786;42.714;23.272;2024-03-17T13:38:53;9.80;;;8.90;;
11044;SDS011;9786;42.714;23.272;2024-03-17T13:44:06;10.33;;;9.33;;
11044;SDS011;9786;42.714;23.272;2024-03-17T13:46:42;11.10;;;10.00;;
11044;SDS011;9786;42.714;23.272;2024-03-17T13:49:10;10.47;;;9.47;;
11044;SDS011;9786;42.714;23.272;2024-03-17T13:51:38;9.40;;;8.53;;
11044;SDS011;9786;42.714;23.272;2024-03-17T13:54:08;9.33;;;8.43;;
11044;SDS011;9786;42.714;23.272;2024-03-17T13:56:36;8.77;;;7.87;;
11044;SDS011;9786;42.714;23.272;2024-03-17T13:59:09;9.73;;;8.83;;
11044;SDS011;9786;42.714;23.272;2024-03-17T14:01:38;8.93;;;8.03;;
11044;SDS011;9786;42.714;23.272;2024-03-17T14:04:09;8.73;;;7.93;;
11044;SDS011;9786;42.714;23.272;2024-03-17T14:06:45;9.03;;;8.10;;
11044;SDS011;9786;42.714;23.272;2024-03-17T14:09:14;9.23;;;8.00;;
11044;SDS011;9786;42.714;23.272;2024-03-17T14:11:47;8.33;;;7.50;;
11044;SDS011;9786;42.714;23.272;2024-03-17T14:14:19;10.93;;;8.57;;
11044;SDS011;9786;42.714;23.272;2024-03-17T14:16:48;8.83;;;7.80;;
11044;SDS011;9786;42.714;23.272;2024-03-17T14:19:16;8.83;;;7.93;;
11044;SDS011;9786;42.714;23.272;2024-03-17T14:21:44;10.53;;;9.50;;
11044;SDS011;9786;42.714;23.272;2024-03-17T14:24:16;8.77;;;7.97;;
11044;SDS011;9786;42.714;23.272;2024-03-17T14:26:44;10.07;;;8.60;;
11044;SDS011;9786;42.714;23.272;2024-03-17T14:29:14;9.87;;;8.97;;
11044;SDS011;9786;42.714;23.272;2024-03-17T14:31:43;9.33;;;8.43;;
11044;SDS011;9786;42.714;23.272;2024-03-17T14:34:11;10.10;;;9.07;;
11044;SDS011;9786;42.714;23.272;2024-03-17T14:36:40;10.83;;;9.57;;
11044;SDS011;9786;42.714;23.272;2024-03-17T14:39:11;10.60;;;8.87;;
11044;SDS011;9786;42.714;23.272;2024-03-17T14:41:39;11.93;;;8.63;;
11044;SDS011;9786;42.714;23.272;2024-03-17T14:44:10;10.23;;;9.23;;
11044;SDS011;9786;42.714;23.272;2024-03-17T14:46:38;10.37;;;9.30;;
11044;SDS011;9786;42.714;23.272;2024-03-17T14:49:09;10.97;;;9.63;;
11044;SDS011;9786;42.714;23.272;2024-03-17T14:51:37;10.80;;;9.73;;
11044;SDS011;9786;42.714;23.272;2024-03-17T14:54:05;10.33;;;9.33;;
11044;SDS011;9786;42.714;23.272;2024-03-17T14:56:36;10.70;;;9.67;;